Time;durP1;ratioP1;P1;durP2;ratioP2;P2;SDS_P1;SDS_P2;PMS_P1;PMS_P2;Temp;Humidity;BMP_temperature;BMP_pressure;BME280_temperature;BME280_humidity;BME280_pressure;Samples;Min_cycle;Max_cycle;Signal;HPM_P1;HPM_P2
2023/12/12 00:00:50;;;;;;;38.70;18.40;;;;;;;0.82;88.32;95073.38;110293;1277;22609;-77
2023/12/12 00:03:38;;;;;;;40.40;18.70;;;;;;;0.80;88.27;95076.83;110264;1277;22126;-77
2023/12/12 00:06:07;;;;;;;49.10;21.80;;;;;;;0.80;88.20;95079.76;110287;1277;22131;-76
2023/12/12 00:08:35;;;;;;;43.90;21.50;;;;;;;0.86;88.21;95072.20;110299;1277;22288;-77
2023/12/12 00:11:05;;;;;;;48.60;21.80;;;;;;;0.90;88.22;95073.80;110313;1277;22171;-76
2023/12/12 00:13:33;;;;;;;46.00;22.60;;;;;;;0.93;88.56;95073.66;110310;1277;22136;-76
2023/12/12 00:16:02;;;;;;;44.90;20.60;;;;;;;0.95;88.82;95073.16;110293;1277;22112;-77
2023/12/12 00:18:35;;;;;;;43.30;20.80;;;;;;;1.02;89.10;95075.48;110304;1277;22135;-77
2023/12/12 00:21:04;;;;;;;43.40;21.70;;;;;;;1.11;89.36;95081.63;110294;1277;22063;-77
2023/12/12 00:23:32;;;;;;;49.50;22.10;;;;;;;1.16;89.11;95081.84;110317;1277;22178;-77
2023/12/12 00:26:00;;;;;;;51.80;23.20;;;;;;;1.19;89.06;95088.45;110314;1277;22155;-77
2023/12/12 00:28:28;;;;;;;42.70;21.60;;;;;;;1.24;88.95;95089.37;110297;1277;22636;-77
2023/12/12 00:30:57;;;;;;;45.90;22.50;;;;;;;1.25;88.62;95094.75;110293;1277;22870;-77
2023/12/12 00:33:25;;;;;;;41.60;21.10;;;;;;;1.29;88.87;95097.73;110300;1277;22128;-77
2023/12/12 00:35:53;;;;;;;43.40;21.90;;;;;;;1.31;88.54;95091.00;110354;1277;22146;-76
2023/12/12 00:38:28;;;;;;;46.60;23.00;;;;;;;1.38;88.78;95086.55;110301;1277;22756;-76
2023/12/12 00:40:56;;;;;;;48.40;23.90;;;;;;;1.45;89.00;95085.92;110297;1277;22129;-76
2023/12/12 00:43:24;;;;;;;50.20;24.60;;;;;;;1.50;88.64;95088.38;110314;1277;22138;-76
2023/12/12 00:45:53;;;;;;;52.40;24.50;;;;;;;1.58;88.53;95082.20;110327;1277;22156;-76
2023/12/12 00:48:21;;;;;;;55.00;24.60;;;;;;;1.59;87.87;95082.71;110321;1277;22144;-76
2023/12/12 00:50:50;;;;;;;49.90;23.70;;;;;;;1.62;87.90;95085.35;110321;1277;22602;-76
2023/12/12 00:53:18;;;;;;;51.80;24.60;;;;;;;1.63;87.67;95085.19;110303;1277;22137;-77
2023/12/12 00:55:46;;;;;;;46.40;23.20;;;;;;;1.73;88.32;95088.03;110345;1277;22293;-77
2023/12/12 00:58:14;;;;;;;46.40;23.70;;;;;;;1.78;87.67;95085.98;110296;1277;22324;-77
2023/12/12 01:00:43;;;;;;;44.30;22.40;;;;;;;1.76;87.38;95087.18;110315;1277;22108;-76
2023/12/12 01:03:11;;;;;;;41.50;20.30;;;;;;;1.73;87.33;95088.20;110306;1277;22113;-76
2023/12/12 01:05:40;;;;;;;40.50;18.90;;;;;;;1.60;86.38;95086.38;110312;1277;22289;-76
2023/12/12 01:08:08;;;;;;;41.10;21.40;;;;;;;1.41;86.11;95070.10;110169;1277;22298;-76
2023/12/12 01:10:37;;;;;;;41.50;20.30;;;;;;;1.29;86.62;95057.71;110311;1277;22252;-77
2023/12/12 01:13:05;;;;;;;46.10;22.70;;;;;;;1.23;86.96;95057.31;110344;1277;22153;-76
2023/12/12 01:15:33;;;;;;;41.30;21.10;;;;;;;1.16;87.36;95057.93;110303;1277;22103;-76
2023/12/12 01:18:01;;;;;;;40.60;21.00;;;;;;;1.13;87.72;95054.80;110306;1278;22145;-76
2023/12/12 01:20:30;;;;;;;40.50;20.60;;;;;;;1.11;87.85;95047.50;110335;1277;22736;-76
2023/12/12 01:22:58;;;;;;;40.10;20.50;;;;;;;1.09;87.98;95049.73;110295;1277;22382;-76
2023/12/12 01:25:27;;;;;;;43.40;21.10;;;;;;;1.06;88.03;95048.33;110084;1277;22905;-76
2023/12/12 01:27:55;;;;;;;41.20;20.30;;;;;;;1.05;87.98;95046.07;110340;1277;22137;-76
2023/12/12 01:30:23;;;;;;;41.20;19.90;;;;;;;1.03;87.97;95049.69;110330;1277;22164;-76
2023/12/12 01:32:52;;;;;;;38.20;19.30;;;;;;;1.00;87.78;95056.75;110327;1277;22154;-76
2023/12/12 01:35:20;;;;;;;40.50;20.40;;;;;;;0.95;88.10;95060.69;110334;1277;22135;-76
2023/12/12 01:37:48;;;;;;;44.40;19.70;;;;;;;0.92;88.03;95056.16;110303;1277;22892;-76
2023/12/12 01:40:16;;;;;;;35.90;18.60;;;;;;;0.92;88.06;95052.70;110318;1277;22172;-76
2023/12/12 01:42:45;;;;;;;37.60;18.60;;;;;;;0.90;88.01;95054.23;110292;1277;22185;-76
2023/12/12 01:45:13;;;;;;;35.70;19.00;;;;;;;0.89;88.02;95049.37;110325;1263;22113;-76
2023/12/12 01:47:44;;;;;;;34.20;17.70;;;;;;;0.89;88.06;95054.05;110310;1277;22164;-76
2023/12/12 01:50:12;;;;;;;37.20;18.00;;;;;;;0.89;88.00;95052.15;110309;1277;22278;-76
2023/12/12 01:52:41;;;;;;;36.30;17.80;;;;;;;0.90;88.15;95047.13;110324;1277;22135;-76
2023/12/12 01:55:09;;;;;;;31.30;15.20;;;;;;;0.90;88.12;95046.44;110324;1277;22993;-76
2023/12/12 01:57:41;;;;;;;35.00;17.90;;;;;;;0.88;87.84;95047.80;110297;1277;22819;-76
2023/12/12 02:00:10;;;;;;;38.50;19.70;;;;;;;0.89;88.02;95039.69;110301;1277;22096;-76
2023/12/12 02:02:41;;;;;;;41.90;20.10;;;;;;;0.90;88.26;95041.25;110340;1277;22143;-77
2023/12/12 02:05:10;;;;;;;42.60;19.70;;;;;;;0.93;88.58;95038.34;110336;1277;22131;-76
2023/12/12 02:07:41;;;;;;;36.60;18.00;;;;;;;0.94;88.82;95038.86;110308;1277;22801;-77
2023/12/12 02:10:09;;;;;;;37.80;18.30;;;;;;;0.93;88.68;95034.02;110329;1277;22934;-76
2023/12/12 02:12:38;;;;;;;40.00;18.80;;;;;;;0.89;88.60;95021.14;110319;1277;22232;-77
2023/12/12 02:15:06;;;;;;;38.50;20.00;;;;;;;0.88;89.10;95023.73;110321;1277;22168;-77
2023/12/12 02:17:35;;;;;;;48.20;24.80;;;;;;;0.89;89.07;95011.11;110323;1277;22200;-76
2023/12/12 02:20:04;;;;;;;37.70;18.80;;;;;;;0.88;88.97;95002.79;110310;1277;22192;-76
2023/12/12 02:22:32;;;;;;;38.10;19.20;;;;;;;0.91;89.44;94996.58;110326;1277;22950;-76
2023/12/12 02:25:01;;;;;;;44.20;22.70;;;;;;;0.88;88.91;94988.08;110325;1277;22139;-76
2023/12/12 02:27:29;;;;;;;46.60;23.40;;;;;;;0.82;88.83;94997.19;110311;1277;22315;-76
2023/12/12 02:29:57;;;;;;;35.10;18.40;;;;;;;0.82;89.36;94998.42;110388;1276;22875;-76
2023/12/12 02:32:29;;;;;;;53.10;27.10;;;;;;;0.82;89.27;95002.92;110323;1277;22176;-76
2023/12/12 02:34:57;;;;;;;38.70;20.00;;;;;;;0.81;89.55;95005.33;110354;1269;22117;-76
2023/12/12 02:37:25;;;;;;;38.50;20.00;;;;;;;0.78;89.33;94998.38;110320;1277;22166;-76
2023/12/12 02:39:54;;;;;;;45.30;21.80;;;;;;;0.74;89.06;95011.34;110317;1277;22753;-76
2023/12/12 02:42:22;;;;;;;42.50;20.40;;;;;;;0.78;89.37;95010.84;110342;1277;22111;-76
2023/12/12 02:44:50;;;;;;;32.40;15.90;;;;;;;0.88;90.05;95009.20;110303;1277;22977;-76
2023/12/12 02:47:20;;;;;;;26.90;14.70;;;;;;;0.96;89.64;95002.34;110336;1277;22193;-76
2023/12/12 02:49:49;;;;;;;40.70;20.20;;;;;;;0.96;89.11;94999.58;110334;1267;22600;-77
2023/12/12 02:52:17;;;;;;;52.50;24.90;;;;;;;0.94;89.08;95002.33;110326;1277;22128;-77
2023/12/12 02:54:45;;;;;;;67.10;31.60;;;;;;;0.98;89.52;94993.54;110332;1277;22141;-77
2023/12/12 02:57:13;;;;;;;30.30;15.80;;;;;;;1.08;89.82;94978.55;110315;1277;22165;-77
2023/12/12 02:59:41;;;;;;;23.40;13.00;;;;;;;1.13;89.37;94974.95;110326;1277;22302;-76
2023/12/12 03:02:09;;;;;;;30.60;13.80;;;;;;;1.06;88.53;94972.47;110333;1277;22980;-76
2023/12/12 03:04:43;;;;;;;31.20;16.20;;;;;;;0.93;88.65;94974.09;110321;1277;22863;-76
2023/12/12 03:07:12;;;;;;;21.90;10.70;;;;;;;0.95;89.27;94980.69;110337;1277;22845;-76
2023/12/12 03:09:40;;;;;;;40.70;21.50;;;;;;;0.99;89.41;94978.30;110315;1277;22142;-76
2023/12/12 03:12:08;;;;;;;41.90;24.20;;;;;;;1.01;89.51;94976.24;110335;1277;22135;-77
2023/12/12 03:14:37;;;;;;;52.90;28.30;;;;;;;0.97;89.28;94977.24;110352;1277;22142;-77
2023/12/12 03:17:05;;;;;;;47.90;25.70;;;;;;;0.98;89.43;94987.65;110297;1277;22216;-76
2023/12/12 03:19:34;;;;;;;51.50;27.60;;;;;;;0.94;89.18;94982.23;110330;1277;22136;-76
2023/12/12 03:22:02;;;;;;;40.10;21.90;;;;;;;0.94;89.41;94975.14;110357;1277;22132;-76
2023/12/12 03:24:30;;;;;;;60.10;29.90;;;;;;;0.83;89.57;94980.59;110296;1277;22133;-76
2023/12/12 03:26:58;;;;;;;49.60;24.20;;;;;;;0.78;89.49;94985.23;110336;1277;22605;-76
2023/12/12 03:29:27;;;;;;;42.50;23.20;;;;;;;0.79;89.60;94985.58;110352;1277;22190;-76
2023/12/12 03:31:59;;;;;;;50.70;24.80;;;;;;;0.77;89.60;94986.77;110335;1277;22188;-76
2023/12/12 03:34:27;;;;;;;46.60;22.50;;;;;;;0.74;89.43;94978.08;110338;1277;22996;-77
2023/12/12 03:36:56;;;;;;;48.10;24.30;;;;;;;0.72;89.54;94974.42;110361;1277;22204;-77
2023/12/12 03:39:24;;;;;;;49.30;24.40;;;;;;;0.70;89.64;94976.33;110307;1277;22141;-77
2023/12/12 03:41:52;;;;;;;46.30;23.50;;;;;;;0.68;89.58;94976.13;110347;1277;22136;-76
2023/12/12 03:44:21;;;;;;;40.90;21.60;;;;;;;0.63;89.63;94986.63;110137;1277;23053;-76
2023/12/12 03:46:49;;;;;;;42.00;20.80;;;;;;;0.56;89.47;94982.06;110354;1277;22687;-76
2023/12/12 03:49:17;;;;;;;46.10;23.70;;;;;;;0.50;89.51;94984.95;110370;1277;22148;-76
2023/12/12 03:51:45;;;;;;;43.90;22.80;;;;;;;0.47;89.83;94989.77;110337;1277;22806;-76
2023/12/12 03:54:14;;;;;;;38.40;20.30;;;;;;;0.46;89.98;94994.42;110349;1277;22141;-76
2023/12/12 03:56:42;;;;;;;25.70;13.00;;;;;;;0.47;90.16;95001.52;110330;1277;22212;-76
2023/12/12 03:59:10;;;;;;;24.90;14.00;;;;;;;0.48;90.07;95006.92;110331;1277;22204;-76
2023/12/12 04:01:39;;;;;;;18.10;10.90;;;;;;;0.50;89.95;95005.88;110353;1277;22879;-76
2023/12/12 04:04:07;;;;;;;27.20;13.60;;;;;;;0.55;90.01;95007.16;110323;1277;23187;-76
2023/12/12 04:06:43;;;;;;;24.80;12.90;;;;;;;0.58;90.35;95004.59;110363;1277;22172;-76
2023/12/12 04:09:12;;;;;;;14.00;8.20;;;;;;;0.64;90.20;95010.35;110346;1277;22135;-76
2023/12/12 04:11:40;;;;;;;53.10;24.70;;;;;;;0.68;90.61;95006.41;110321;1277;22117;-76
2023/12/12 04:14:08;;;;;;;81.70;40.30;;;;;;;0.69;90.71;95012.49;110332;1277;22118;-76
2023/12/12 04:16:37;;;;;;;86.90;47.00;;;;;;;0.75;90.73;95014.77;110336;1277;22137;-77
2023/12/12 04:19:05;;;;;;;108.10;63.30;;;;;;;0.80;90.76;95022.64;110349;1277;22132;-77
2023/12/12 04:21:33;;;;;;;67.70;35.30;;;;;;;0.86;90.88;95031.01;110345;1277;22119;-77
2023/12/12 04:24:01;;;;;;;56.60;31.60;;;;;;;0.93;90.88;95027.25;110356;1277;22159;-77
2023/12/12 04:26:30;;;;;;;65.40;33.00;;;;;;;1.00;90.84;95019.69;110312;1277;22119;-77
2023/12/12 04:28:58;;;;;;;77.80;41.90;;;;;;;1.05;90.84;95016.63;110324;1277;22197;-77
2023/12/12 04:31:26;;;;;;;97.10;52.90;;;;;;;1.13;90.90;95014.27;110346;1277;22213;-77
2023/12/12 04:33:55;;;;;;;102.60;51.90;;;;;;;1.24;91.36;95013.83;110319;1267;22130;-77
2023/12/12 04:36:23;;;;;;;108.40;55.40;;;;;;;1.33;91.26;95009.92;110338;1277;22366;-77
2023/12/12 04:38:51;;;;;;;119.80;57.70;;;;;;;1.37;90.85;95008.91;110320;1277;22879;-77
2023/12/12 04:41:20;;;;;;;91.20;46.90;;;;;;;1.36;90.38;95004.23;110155;1277;22154;-77
2023/12/12 04:43:48;;;;;;;101.80;51.50;;;;;;;1.28;89.93;94993.42;110193;1277;219145;-77
2023/12/12 04:46:19;;;;;;;73.80;37.90;;;;;;;1.22;90.21;94985.75;110353;1277;22180;-77
2023/12/12 04:48:48;;;;;;;39.10;21.50;;;;;;;1.20;90.62;94986.61;110344;1277;22131;-77
2023/12/12 04:51:16;;;;;;;18.20;10.00;;;;;;;1.18;90.83;94980.52;110192;1277;22969;-76
2023/12/12 04:53:44;;;;;;;18.00;11.00;;;;;;;1.21;91.56;94983.31;110327;1277;22134;-77
2023/12/12 04:56:13;;;;;;;30.50;16.40;;;;;;;1.22;91.34;94988.87;110351;1277;22119;-77
2023/12/12 04:58:41;;;;;;;26.20;14.50;;;;;;;1.24;91.49;94990.27;110370;1277;22990;-77
2023/12/12 05:01:09;;;;;;;4.20;2.40;;;;;;;1.26;91.34;94997.73;110301;1277;22178;-77
2023/12/12 05:03:38;;;;;;;2.50;1.90;;;;;;;1.32;91.91;94999.16;110359;1277;22869;-77
2023/12/12 05:06:08;;;;;;;1.80;1.40;;;;;;;1.45;92.41;95002.38;110333;1277;22168;-77
2023/12/12 05:08:37;;;;;;;3.40;1.50;;;;;;;1.58;92.55;95005.77;110197;1277;22804;-77
2023/12/12 05:11:05;;;;;;;1.40;1.00;;;;;;;1.67;92.50;95008.77;110331;1277;22177;-77
2023/12/12 05:13:33;;;;;;;1.50;1.10;;;;;;;1.73;92.20;95008.45;110358;1277;22125;-77
2023/12/12 05:16:03;;;;;;;2.30;1.40;;;;;;;1.81;92.31;95014.56;110347;1277;22181;-77
2023/12/12 05:18:40;;;;;;;1.60;1.20;;;;;;;1.94;92.61;95017.92;110366;1277;22778;-77
2023/12/12 05:21:09;;;;;;;2.70;1.70;;;;;;;2.07;92.57;95019.57;110364;1277;22119;-77
2023/12/12 05:23:37;;;;;;;2.40;1.20;;;;;;;2.21;92.89;95019.97;110370;1277;22122;-77
2023/12/12 05:26:05;;;;;;;2.20;1.30;;;;;;;2.29;92.63;95017.21;110325;1277;22142;-77
2023/12/12 05:28:33;;;;;;;1.90;1.10;;;;;;;2.41;92.61;95022.82;110347;1277;22171;-77
2023/12/12 05:31:02;;;;;;;2.00;1.20;;;;;;;2.47;92.53;95021.98;110316;1277;22308;-77
2023/12/12 05:33:30;;;;;;;1.10;0.80;;;;;;;2.55;92.58;95018.18;110382;1277;22114;-77
2023/12/12 05:35:58;;;;;;;1.60;1.00;;;;;;;2.53;91.77;95020.27;110343;1270;22290;-77
2023/12/12 05:38:26;;;;;;;1.20;1.10;;;;;;;2.50;91.66;95024.08;110357;1277;22180;-77
2023/12/12 05:40:56;;;;;;;2.50;1.50;;;;;;;2.58;92.53;95023.39;110359;1277;22150;-77
2023/12/12 05:43:24;;;;;;;9.00;5.40;;;;;;;2.71;93.48;95021.88;110367;1277;22257;-77
2023/12/12 05:45:52;;;;;;;2.50;1.10;;;;;;;2.82;93.47;95016.67;110359;1277;22107;-77
2023/12/12 05:48:20;;;;;;;1.30;0.90;;;;;;;2.87;92.91;95016.34;110362;1277;22132;-77
2023/12/12 05:50:48;;;;;;;1.90;1.30;;;;;;;2.91;92.69;95016.86;110364;1277;22201;-77
2023/12/12 05:53:16;;;;;;;4.40;2.30;;;;;;;2.95;92.68;95013.57;110352;1277;22767;-77
2023/12/12 05:55:44;;;;;;;1.70;1.60;;;;;;;3.02;92.92;95022.10;110342;1277;22229;-77
2023/12/12 05:58:13;;;;;;;2.40;1.70;;;;;;;3.10;92.83;95033.05;110354;1277;22211;-77
2023/12/12 06:00:41;;;;;;;5.40;1.70;;;;;;;3.15;93.05;95031.14;110350;1277;22128;-77
2023/12/12 06:03:09;;;;;;;2.60;1.70;;;;;;;3.19;92.83;95038.45;110356;1277;22157;-77
2023/12/12 06:05:37;;;;;;;4.00;2.10;;;;;;;3.21;92.60;95042.44;110387;1277;22177;-79
2023/12/12 06:08:05;;;;;;;6.10;2.10;;;;;;;3.27;93.12;95046.63;110372;1277;22131;-79
2023/12/12 06:10:34;;;;;;;4.80;2.70;;;;;;;3.32;92.69;95040.71;110338;1277;22908;-78
2023/12/12 06:13:02;;;;;;;3.80;2.10;;;;;;;3.32;92.38;95037.77;110324;1277;22199;-78
2023/12/12 06:15:30;;;;;;;3.70;2.30;;;;;;;3.36;92.53;95038.12;110361;1277;22206;-78
2023/12/12 06:17:58;;;;;;;2.60;1.70;;;;;;;3.45;93.00;95037.42;110336;1267;22137;-78
2023/12/12 06:20:27;;;;;;;2.60;1.60;;;;;;;3.52;92.91;95035.48;110350;1277;22292;-78
2023/12/12 06:22:55;;;;;;;3.10;1.90;;;;;;;3.55;92.56;95037.23;110347;1277;22118;-77
2023/12/12 06:25:23;;;;;;;4.10;2.30;;;;;;;3.55;92.34;95041.58;110349;1277;22674;-79
2023/12/12 06:27:52;;;;;;;4.30;2.40;;;;;;;3.60;92.63;95045.41;110323;1277;22223;-79
2023/12/12 06:30:20;;;;;;;2.40;1.70;;;;;;;3.64;92.56;95047.49;110343;1277;22879;-81
2023/12/12 06:32:49;;;;;;;2.70;1.70;;;;;;;3.71;92.35;95051.48;110338;1277;22335;-80
2023/12/12 06:35:17;;;;;;;3.30;2.00;;;;;;;3.79;92.61;95051.13;110330;1277;22171;-80
2023/12/12 06:37:46;;;;;;;2.40;1.80;;;;;;;3.82;92.29;95055.65;110335;1277;22186;-80
2023/12/12 06:40:14;;;;;;;2.80;1.90;;;;;;;3.85;92.14;95055.13;110378;1277;22788;-80
2023/12/12 06:42:47;;;;;;;3.50;2.00;;;;;;;3.90;91.96;95051.64;110194;1277;22111;-81
2023/12/12 06:45:15;;;;;;;16.70;10.20;;;;;;;3.94;91.98;95056.52;110366;1277;22144;-80
2023/12/12 06:47:44;;;;;;;2.60;1.90;;;;;;;4.08;92.41;95055.08;110339;1277;22118;-78
2023/12/12 06:50:13;;;;;;;4.50;2.20;;;;;;;4.23;92.42;95057.66;110307;1277;22964;-80
2023/12/12 06:52:41;;;;;;;13.80;8.50;;;;;;;4.34;92.12;95060.94;110385;1277;22154;-79
2023/12/12 06:55:09;;;;;;;4.00;2.50;;;;;;;4.40;91.68;95061.61;110355;1277;22919;-79
2023/12/12 06:57:37;;;;;;;3.50;2.00;;;;;;;4.51;91.92;95063.30;110355;1277;22304;-80
2023/12/12 07:00:07;;;;;;;6.50;3.00;;;;;;;4.58;91.66;95068.16;110335;1277;22896;-80
2023/12/12 07:02:35;;;;;;;3.60;2.70;;;;;;;4.58;91.35;95067.30;110345;1277;22317;-81
2023/12/12 07:05:07;;;;;;;15.10;6.70;;;;;;;4.65;91.38;95062.20;110339;1277;22228;-80
2023/12/12 07:07:35;;;;;;;105.40;35.90;;;;;;;4.73;90.99;95068.27;110360;1277;22137;-80
2023/12/12 07:10:06;;;;;;;45.60;23.00;;;;;;;4.78;90.77;95064.41;110346;1277;22351;-82
2023/12/12 07:12:35;;;;;;;110.20;39.30;;;;;;;4.81;90.65;95068.77;110354;1277;22830;-82
2023/12/12 07:15:04;;;;;;;47.00;21.20;;;;;;;4.83;90.27;95072.92;110350;1277;22147;-78
2023/12/12 07:17:32;;;;;;;11.40;6.30;;;;;;;4.83;89.64;95075.55;110281;1277;22831;-79
2023/12/12 07:20:02;;;;;;;6.90;3.10;;;;;;;4.82;88.99;95080.77;110359;1277;22248;-80
2023/12/12 07:22:30;;;;;;;5.50;2.80;;;;;;;4.85;88.69;95089.13;110344;1277;22187;-77
2023/12/12 07:24:59;;;;;;;5.30;3.40;;;;;;;4.87;88.52;95094.33;110367;1277;22183;-81
2023/12/12 07:27:28;;;;;;;4.70;2.90;;;;;;;4.94;87.96;95096.06;110356;1277;22909;-81
2023/12/12 07:29:56;;;;;;;9.20;6.90;;;;;;;5.02;88.01;95105.08;110360;1277;22175;-82
2023/12/12 07:32:26;;;;;;;6.90;4.20;;;;;;;5.07;87.50;95107.48;110365;1277;22323;-83
2023/12/12 07:34:55;;;;;;;5.70;4.30;;;;;;;5.10;87.33;95107.30;110368;1277;22898;-81
2023/12/12 07:37:23;;;;;;;2.90;2.20;;;;;;;5.13;87.15;95110.42;110329;1277;22497;-80
2023/12/12 07:39:51;;;;;;;6.20;3.50;;;;;;;5.16;86.76;95114.23;110347;1277;22231;-81
2023/12/12 07:42:19;;;;;;;6.70;3.70;;;;;;;5.16;85.75;95114.05;110359;1277;22096;-79
2023/12/12 07:44:48;;;;;;;5.60;3.20;;;;;;;5.19;86.09;95109.70;110336;1277;22140;-81
2023/12/12 07:47:17;;;;;;;5.00;3.60;;;;;;;5.19;85.57;95112.83;110331;1277;23043;-82
2023/12/12 07:49:49;;;;;;;4.00;2.40;;;;;;;5.23;85.52;95108.10;110350;1277;22345;-80
2023/12/12 07:52:17;;;;;;;3.30;2.50;;;;;;;5.26;83.98;95108.27;110358;1270;22372;-81
2023/12/12 07:54:46;;;;;;;2.80;2.20;;;;;;;5.30;84.38;95114.86;110304;1277;22232;-80
2023/12/12 07:57:14;;;;;;;7.30;3.90;;;;;;;5.31;84.17;95111.36;110349;1277;22202;-77
2023/12/12 07:59:44;;;;;;;3.70;2.70;;;;;;;5.38;84.28;95112.89;110346;1277;22121;-77
2023/12/12 08:02:13;;;;;;;3.30;2.90;;;;;;;5.46;83.29;95110.74;110280;1277;22117;-80
2023/12/12 08:04:41;;;;;;;6.80;3.90;;;;;;;5.56;83.80;95114.52;110353;1277;22133;-81
2023/12/12 08:07:09;;;;;;;4.30;3.40;;;;;;;5.65;84.27;95118.83;110351;1277;22133;-80
2023/12/12 08:09:37;;;;;;;4.00;2.50;;;;;;;5.71;83.88;95119.65;110351;1277;22121;-80
2023/12/12 08:12:06;;;;;;;10.00;4.90;;;;;;;5.75;83.05;95117.52;110353;1277;22125;-79
2023/12/12 08:14:34;;;;;;;4.10;2.90;;;;;;;5.77;83.05;95118.73;110313;1277;22133;-83
2023/12/12 08:17:02;;;;;;;5.30;2.60;;;;;;;5.75;82.83;95120.14;110331;1277;22124;-81
2023/12/12 08:19:30;;;;;;;7.60;3.80;;;;;;;5.73;82.10;95119.64;110342;1262;22227;-81
2023/12/12 08:21:59;;;;;;;4.40;2.50;;;;;;;5.76;82.15;95114.20;110351;1277;22144;-81
2023/12/12 08:24:27;;;;;;;3.40;2.30;;;;;;;5.85;82.08;95116.92;110354;1277;22128;-81
2023/12/12 08:26:55;;;;;;;16.80;10.40;;;;;;;5.97;82.47;95115.98;110332;1277;22219;-81
2023/12/12 08:29:23;;;;;;;7.10;4.50;;;;;;;6.07;81.80;95109.09;110335;1277;22227;-80
2023/12/12 08:31:52;;;;;;;6.50;3.80;;;;;;;6.10;80.78;95105.41;110340;1277;22329;-80
2023/12/12 08:34:20;;;;;;;9.80;6.60;;;;;;;6.15;81.54;95103.25;110341;1277;22226;-82
2023/12/12 08:36:48;;;;;;;3.50;2.50;;;;;;;6.23;81.24;95108.07;110322;1277;22176;-81
2023/12/12 08:39:16;;;;;;;8.70;4.50;;;;;;;6.29;80.83;95099.98;110159;1269;22172;-81
2023/12/12 08:41:45;;;;;;;5.60;3.50;;;;;;;6.36;81.49;95096.93;110329;1277;22191;-81
2023/12/12 08:44:13;;;;;;;6.80;4.00;;;;;;;6.43;81.44;95097.90;110287;1277;22118;-82
2023/12/12 08:46:43;;;;;;;9.10;5.60;;;;;;;6.51;80.80;95096.77;110347;1277;22128;-81
2023/12/12 08:49:12;;;;;;;5.40;3.10;;;;;;;6.56;80.05;95104.41;110357;1277;22226;-79
2023/12/12 08:51:40;;;;;;;6.80;3.20;;;;;;;6.62;79.34;95099.62;110354;1277;22230;-81
2023/12/12 08:54:09;;;;;;;3.80;2.80;;;;;;;6.73;79.27;95104.92;110340;1277;22963;-80
2023/12/12 08:56:38;;;;;;;3.90;2.50;;;;;;;6.80;78.45;95102.73;110336;1277;22134;-79
2023/12/12 08:59:06;;;;;;;4.90;3.00;;;;;;;6.80;77.42;95103.08;110377;1277;22121;-77
2023/12/12 09:01:35;;;;;;;4.80;2.10;;;;;;;6.82;77.32;95103.23;110343;1277;23116;-79
2023/12/12 09:04:03;;;;;;;5.30;3.60;;;;;;;6.85;77.08;95095.85;110331;1277;22850;-80
2023/12/12 09:06:31;;;;;;;3.40;2.00;;;;;;;6.90;77.14;95106.11;110339;1277;22351;-79
2023/12/12 09:09:00;;;;;;;16.50;11.00;;;;;;;6.92;77.31;95105.21;110349;1277;22169;-79
2023/12/12 09:11:28;;;;;;;6.80;5.20;;;;;;;6.92;77.77;95101.20;110322;1277;22757;-79
2023/12/12 09:13:56;;;;;;;4.30;2.70;;;;;;;6.79;76.85;95103.09;110351;1277;22986;-81
2023/12/12 09:16:24;;;;;;;4.40;2.70;;;;;;;6.65;77.07;95103.44;110380;1277;22145;-79
2023/12/12 09:18:52;;;;;;;4.70;3.30;;;;;;;6.56;76.86;95088.69;110354;1277;22148;-79
2023/12/12 09:21:21;;;;;;;4.70;2.90;;;;;;;6.50;77.47;95086.46;110353;1277;22185;-80
2023/12/12 09:23:50;;;;;;;6.80;3.30;;;;;;;6.49;77.70;95091.20;110326;1277;22347;-80
2023/12/12 09:26:18;;;;;;;6.60;3.80;;;;;;;6.48;77.82;95100.30;110341;1277;23003;-80
2023/12/12 09:28:47;;;;;;;7.10;3.70;;;;;;;6.50;77.86;95093.98;110338;1277;22137;-81
2023/12/12 09:31:24;;;;;;;7.80;3.70;;;;;;;6.50;78.14;95094.68;110345;1277;22219;-82
2023/12/12 09:33:53;;;;;;;7.70;5.10;;;;;;;6.50;78.20;95102.02;110375;1277;22817;-82
2023/12/12 09:36:21;;;;;;;6.90;3.50;;;;;;;6.51;78.19;95104.98;110275;1277;22832;-80
2023/12/12 09:38:50;;;;;;;3.80;2.70;;;;;;;6.52;77.68;95103.75;110417;1270;22144;-84
2023/12/12 09:41:23;;;;;;;7.00;4.30;;;;;;;6.51;77.42;95102.53;110294;1269;22826;-78
2023/12/12 09:43:51;;;;;;;4.60;3.10;;;;;;;6.56;77.45;95105.63;110291;1271;22802;-82
2023/12/12 09:46:20;;;;;;;7.00;4.00;;;;;;;6.73;77.49;95103.52;110326;1271;22348;-81
2023/12/12 09:48:50;;;;;;;8.40;4.30;;;;;;;6.81;77.24;95102.37;110300;1267;22186;-82
2023/12/12 09:51:19;;;;;;;8.80;3.80;;;;;;;6.85;77.09;95093.59;110271;1277;22343;-83
2023/12/12 09:53:48;;;;;;;5.60;3.60;;;;;;;6.87;75.93;95090.94;110285;1277;22363;-84
2023/12/12 09:56:20;;;;;;;6.20;5.20;;;;;;;6.89;75.01;95087.58;110396;1270;22936;-81
2023/12/12 09:58:48;;;;;;;7.20;3.70;;;;;;;7.00;75.37;95092.87;110314;1277;22286;-80
2023/12/12 10:01:17;;;;;;;4.90;3.10;;;;;;;7.13;75.58;95089.91;110274;1277;22162;-80
2023/12/12 10:03:47;;;;;;;4.50;2.30;;;;;;;7.27;75.51;95086.22;110311;1277;22167;-81
2023/12/12 10:06:17;;;;;;;3.20;2.30;;;;;;;7.63;75.11;95085.16;110298;1277;22893;-80
2023/12/12 10:08:46;;;;;;;2.50;1.70;;;;;;;8.08;73.39;95082.50;110284;1277;22305;-78
2023/12/12 10:11:14;;;;;;;2.90;2.20;;;;;;;8.31;70.64;95087.37;110258;1277;22204;-79
2023/12/12 10:13:56;;;;;;;6.40;3.40;;;;;;;8.70;71.22;95082.46;110325;1261;23081;-78
2023/12/12 10:16:25;;;;;;;4.50;2.60;;;;;;;9.01;69.23;95079.55;110297;1277;22181;-79
2023/12/12 10:18:54;;;;;;;4.00;2.60;;;;;;;9.33;66.69;95077.82;110284;1277;22189;-79
2023/12/12 10:21:24;;;;;;;4.80;3.50;;;;;;;9.55;67.30;95078.02;110302;1277;22709;-81
2023/12/12 10:23:53;;;;;;;4.50;3.00;;;;;;;9.45;66.81;95071.76;110256;1277;22272;-80
2023/12/12 10:26:25;;;;;;;4.70;2.80;;;;;;;9.31;66.58;95074.54;110320;1277;22135;-78
2023/12/12 10:28:56;;;;;;;5.40;2.50;;;;;;;9.24;66.60;95081.70;110329;1277;22800;-78
2023/12/12 10:31:25;;;;;;;6.60;2.70;;;;;;;9.03;66.01;95078.81;110311;1277;22843;-79
2023/12/12 10:33:56;;;;;;;4.60;2.60;;;;;;;8.88;66.65;95085.27;110344;1277;22177;-79
2023/12/12 10:36:25;;;;;;;7.50;4.20;;;;;;;8.75;66.62;95084.98;110342;1277;22113;-78
2023/12/12 10:38:54;;;;;;;5.40;3.10;;;;;;;8.64;66.66;95094.16;110334;1277;22868;-79
2023/12/12 10:41:22;;;;;;;5.00;3.00;;;;;;;8.87;67.90;95084.92;110339;1277;22132;-79
2023/12/12 10:43:55;;;;;;;9.10;4.00;;;;;;;9.34;67.83;95076.92;110334;1277;22839;-79
2023/12/12 10:46:26;;;;;;;3.60;2.50;;;;;;;9.79;68.07;95083.81;110295;1277;22143;-79
2023/12/12 10:48:57;;;;;;;4.00;2.60;;;;;;;9.86;64.99;95081.17;110341;1277;22965;-79
2023/12/12 10:51:27;;;;;;;7.50;3.20;;;;;;;10.13;64.48;95080.33;110295;1277;22201;-79
2023/12/12 10:53:57;;;;;;;5.70;2.20;;;;;;;10.17;63.50;95078.64;110317;1277;22225;-79
2023/12/12 10:56:28;;;;;;;4.00;2.30;;;;;;;10.37;63.26;95078.16;110332;1277;22849;-78
2023/12/12 10:58:59;;;;;;;4.90;3.10;;;;;;;10.73;62.96;95071.23;110318;1277;22190;-79
2023/12/12 11:01:47;;;;;;;6.60;4.30;;;;;;;11.11;62.65;95068.04;110314;1277;22110;-79
2023/12/12 11:04:17;;;;;;;4.20;2.70;;;;;;;11.47;61.14;95066.98;110315;1277;22267;-78
2023/12/12 11:06:46;;;;;;;5.30;2.50;;;;;;;11.72;59.33;95063.91;110296;1277;22898;-78
2023/12/12 11:09:15;;;;;;;4.50;2.90;;;;;;;11.98;58.30;95066.80;110321;1277;22146;-79
2023/12/12 11:11:47;;;;;;;6.40;2.60;;;;;;;12.27;57.66;95067.09;110311;1266;22142;-79
2023/12/12 11:14:19;;;;;;;5.50;2.50;;;;;;;12.62;56.08;95061.48;110260;1277;22130;-78
2023/12/12 11:16:48;;;;;;;6.20;3.60;;;;;;;12.62;54.85;95047.02;110316;1277;22135;-79
2023/12/12 11:19:18;;;;;;;5.60;2.50;;;;;;;12.77;54.32;95057.59;110335;1277;22906;-78
2023/12/12 11:21:48;;;;;;;4.50;2.10;;;;;;;12.91;53.53;95062.02;110308;1266;22228;-78
2023/12/12 11:24:18;;;;;;;3.50;1.70;;;;;;;12.87;53.18;95057.95;110301;1277;22261;-79
2023/12/12 11:26:47;;;;;;;3.20;1.70;;;;;;;13.07;53.33;95060.94;110330;1277;22130;-78
2023/12/12 11:29:23;;;;;;;3.60;2.10;;;;;;;13.30;52.93;95056.02;110300;1277;22309;-79
2023/12/12 11:32:02;;;;;;;2.50;1.90;;;;;;;13.29;50.55;95055.35;110260;1274;22124;-78